トロント/ピアソン の空港の天気 - METARとTAF

トロント・ピアソン国際空港 ( CYYZ / YYZ ) - カナダ オンタリオ州トロント
飛行場実況気象(Metar)
観測時間01/20 22:00 EST (01/21 03:00 UTC)
風向・風速南南西 4m/s
視程10km以上
天気現象
なし
気温-9℃
湿度79%
気圧1032.3hPa
METARCYYZ 210300Z 20008KT 15SM SKC M09/M12 A3044 RMK SLP323
過去の天気等 Google飛行場航空写真 Wunderground天気予報

過去48時間のMETAR

飛行場予報(TAF)
発表時間: 1/20 21:41 EST (1/21 02:41 UTC)
予報対象時間: 20日22時 EST ~ 22日1時 EST
風向・風速南南西 3m/s
視程10km以上
少しの雲 雲底高度 910m
20日22時 EST ~ 21日10時 EST に一時的に
全天の8割程度の雲 雲底高度 910m
21日5時 EST ~ 21日7時 EST に徐々に
風向・風速西 4m/s
21日10時 EST から
風向・風速西 5m/s 瞬間風速 10m/s
視程10km以上
全天の4割程度の雲 雲底高度 910m
全天の8割程度の雲 雲底高度 4270m
21日13時 EST から
風向・風速西 5m/s 瞬間風速 10m/s
視程10km以上
全天の8割程度の雲 雲底高度 910m
全天の8割程度の雲 雲底高度 3660m
21日19時 EST ~ 21日21時 EST に徐々に
風向・風速西南西 6m/s
TAF CYYZ 210241Z 2103/2206 21005KT P6SM FEW030
TEMPO 2103/2115 BKN030
BECMG 2110/2112 26008KT
FM211500 26010G20KT P6SM SCT030 BKN140
FM211800 26010G20KT P6SM BKN030 BKN120
BECMG 2200/2202 25012KT RMK NXT FCST BY 210600Z